sensor_id;sensor_type;location;lat;lon;timestamp;pressure;altitude;pressure_sealevel;temperature;humidity
33191;BME280;19554;42.652;23.364;2023-02-28T00:02:19;95059.03;;;8.86;76.98
33191;BME280;19554;42.652;23.364;2023-02-28T00:04:45;95080.06;;;8.98;76.59
33191;BME280;19554;42.652;23.364;2023-02-28T00:07:11;95046.22;;;8.78;75.99
33191;BME280;19554;42.652;23.364;2023-02-28T00:09:36;95088.59;;;9.10;76.38
33191;BME280;19554;42.652;23.364;2023-02-28T00:12:02;95070.47;;;8.87;76.25
33191;BME280;19554;42.652;23.364;2023-02-28T00:14:35;95088.84;;;8.93;76.43
33191;BME280;19554;42.652;23.364;2023-02-28T00:17:00;95071.81;;;8.79;76.31
33191;BME280;19554;42.652;23.364;2023-02-28T00:19:26;95062.22;;;8.93;76.61
33191;BME280;19554;42.652;23.364;2023-02-28T00:21:51;95044.94;;;8.86;76.41
33191;BME280;19554;42.652;23.364;2023-02-28T00:24:16;95084.06;;;9.11;76.06
33191;BME280;19554;42.652;23.364;2023-02-28T00:26:42;95070.47;;;9.12;76.05
33191;BME280;19554;42.652;23.364;2023-02-28T00:29:07;95042.19;;;8.50;76.45
33191;BME280;19554;42.652;23.364;2023-02-28T00:31:32;95059.78;;;8.56;76.98
33191;BME280;19554;42.652;23.364;2023-02-28T00:33:58;95070.97;;;8.73;76.78
33191;BME280;19554;42.652;23.364;2023-02-28T00:36:23;95054.63;;;8.34;78.08
33191;BME280;19554;42.652;23.364;2023-02-28T00:38:49;95056.22;;;8.25;78.67
33191;BME280;19554;42.652;23.364;2023-02-28T00:41:14;94991.41;;;7.63;79.17
33191;BME280;19554;42.652;23.364;2023-02-28T00:43:40;95087.94;;;7.84;81.11
33191;BME280;19554;42.652;23.364;2023-02-28T00:46:05;95076.88;;;7.50;83.02
33191;BME280;19554;42.652;23.364;2023-02-28T00:48:31;95041.44;;;6.97;84.88
33191;BME280;19554;42.652;23.364;2023-02-28T00:50:57;95057.34;;;6.97;85.72
33191;BME280;19554;42.652;23.364;2023-02-28T00:53:23;95065.38;;;7.02;86.13
33191;BME280;19554;42.652;23.364;2023-02-28T00:55:49;95066.16;;;7.02;86.21
33191;BME280;19554;42.652;23.364;2023-02-28T00:58:14;95038.16;;;6.84;86.51
33191;BME280;19554;42.652;23.364;2023-02-28T01:00:40;95011.06;;;6.82;86.84
33191;BME280;19554;42.652;23.364;2023-02-28T01:03:05;95068.09;;;7.49;86.36
33191;BME280;19554;42.652;23.364;2023-02-28T01:05:31;95051.31;;;7.39;84.34
33191;BME280;19554;42.652;23.364;2023-02-28T01:07:56;95058.50;;;7.48;83.90
33191;BME280;19554;42.652;23.364;2023-02-28T01:10:21;95057.72;;;7.48;83.91
33191;BME280;19554;42.652;23.364;2023-02-28T01:12:47;95051.84;;;7.41;83.97
33191;BME280;19554;42.652;23.364;2023-02-28T01:15:12;95050.81;;;7.52;83.62
33191;BME280;19554;42.652;23.364;2023-02-28T01:17:38;95086.81;;;7.70;83.12
33191;BME280;19554;42.652;23.364;2023-02-28T01:20:03;95080.16;;;7.67;83.41
33191;BME280;19554;42.652;23.364;2023-02-28T01:22:29;95079.59;;;7.65;82.80
33191;BME280;19554;42.652;23.364;2023-02-28T01:24:54;95034.94;;;7.15;83.44
33191;BME280;19554;42.652;23.364;2023-02-28T01:27:20;95057.94;;;7.04;84.39
33191;BME280;19554;42.652;23.364;2023-02-28T01:29:45;95047.22;;;6.88;84.87
33191;BME280;19554;42.652;23.364;2023-02-28T01:32:10;95048.88;;;6.95;84.94
33191;BME280;19554;42.652;23.364;2023-02-28T01:34:36;95073.84;;;6.99;85.30
33191;BME280;19554;42.652;23.364;2023-02-28T01:37:01;95032.72;;;6.69;85.86
33191;BME280;19554;42.652;23.364;2023-02-28T01:39:28;95076.13;;;6.90;86.05
33191;BME280;19554;42.652;23.364;2023-02-28T01:41:54;95093.00;;;7.06;86.35
33191;BME280;19554;42.652;23.364;2023-02-28T01:47:27;95053.66;;;6.98;85.54
33191;BME280;19554;42.652;23.364;2023-02-28T01:49:53;95065.66;;;7.05;85.20
33191;BME280;19554;42.652;23.364;2023-02-28T01:52:19;95040.34;;;6.93;85.17
33191;BME280;19554;42.652;23.364;2023-02-28T01:54:51;95080.59;;;7.49;84.67
33191;BME280;19554;42.652;23.364;2023-02-28T01:57:20;95095.66;;;7.86;83.35
33191;BME280;19554;42.652;23.364;2023-02-28T01:59:52;95070.66;;;7.76;82.45
33191;BME280;19554;42.652;23.364;2023-02-28T02:02:21;95077.69;;;8.08;81.82
33191;BME280;19554;42.652;23.364;2023-02-28T02:05:00;95082.00;;;8.24;80.71
33191;BME280;19554;42.652;23.364;2023-02-28T02:07:31;95063.34;;;8.09;80.07
33191;BME280;19554;42.652;23.364;2023-02-28T02:15:12;95071.50;;;8.55;79.32
33191;BME280;19554;42.652;23.364;2023-02-28T02:17:42;95083.72;;;8.61;78.87
33191;BME280;19554;42.652;23.364;2023-02-28T02:40:02;95076.84;;;8.75;76.07
33191;BME280;19554;42.652;23.364;2023-02-28T02:42:39;95059.53;;;8.68;76.73
33191;BME280;19554;42.652;23.364;2023-02-28T02:45:12;95067.25;;;8.69;77.15
33191;BME280;19554;42.652;23.364;2023-02-28T02:47:40;95060.34;;;8.78;77.00
33191;BME280;19554;42.652;23.364;2023-02-28T02:50:13;95078.69;;;8.75;77.48
33191;BME280;19554;42.652;23.364;2023-02-28T02:52:44;95086.19;;;8.93;77.05
33191;BME280;19554;42.652;23.364;2023-02-28T02:55:13;95069.91;;;8.59;77.10
33191;BME280;19554;42.652;23.364;2023-02-28T02:57:56;95082.66;;;8.52;77.60
33191;BME280;19554;42.652;23.364;2023-02-28T03:00:32;95096.38;;;8.28;79.02
33191;BME280;19554;42.652;23.364;2023-02-28T03:02:59;95068.66;;;8.09;79.29
33191;BME280;19554;42.652;23.364;2023-02-28T03:05:30;95089.81;;;7.89;79.90
33191;BME280;19554;42.652;23.364;2023-02-28T03:07:58;95123.00;;;7.81;80.90
33191;BME280;19554;42.652;23.364;2023-02-28T03:10:29;95085.47;;;7.72;81.01
33191;BME280;19554;42.652;23.364;2023-02-28T03:15:40;95115.44;;;8.05;81.00
33191;BME280;19554;42.652;23.364;2023-02-28T03:18:40;95126.72;;;8.27;80.75
33191;BME280;19554;42.652;23.364;2023-02-28T03:21:26;95124.59;;;8.35;80.02
33191;BME280;19554;42.652;23.364;2023-02-28T03:26:31;95132.09;;;8.38;79.34
33191;BME280;19554;42.652;23.364;2023-02-28T03:29:06;95130.50;;;8.42;79.44
33191;BME280;19554;42.652;23.364;2023-02-28T03:31:44;95138.53;;;8.57;79.04
33191;BME280;19554;42.652;23.364;2023-02-28T03:34:27;95138.22;;;8.43;78.57
33191;BME280;19554;42.652;23.364;2023-02-28T03:36:57;95141.84;;;8.27;79.00
33191;BME280;19554;42.652;23.364;2023-02-28T03:39:30;95138.09;;;8.23;79.31
33191;BME280;19554;42.652;23.364;2023-02-28T03:42:01;95134.03;;;8.10;79.85
33191;BME280;19554;42.652;23.364;2023-02-28T03:44:33;95125.94;;;7.84;80.28
33191;BME280;19554;42.652;23.364;2023-02-28T03:47:04;95107.34;;;7.79;81.20
33191;BME280;19554;42.652;23.364;2023-02-28T03:49:39;95134.75;;;7.90;80.51
33191;BME280;19554;42.652;23.364;2023-02-28T03:52:08;95128.59;;;7.84;80.47
33191;BME280;19554;42.652;23.364;2023-02-28T03:54:42;95152.66;;;8.05;80.63
33191;BME280;19554;42.652;23.364;2023-02-28T03:57:20;95149.31;;;7.82;80.61
33191;BME280;19554;42.652;23.364;2023-02-28T03:59:59;95160.00;;;7.93;80.83
33191;BME280;19554;42.652;23.364;2023-02-28T04:02:27;95156.81;;;7.91;80.82
33191;BME280;19554;42.652;23.364;2023-02-28T04:04:52;95152.88;;;7.98;80.78
33191;BME280;19554;42.652;23.364;2023-02-28T04:07:18;95146.19;;;7.91;80.37
33191;BME280;19554;42.652;23.364;2023-02-28T04:09:44;95147.06;;;7.64;81.42
33191;BME280;19554;42.652;23.364;2023-02-28T04:12:09;95113.66;;;6.99;83.20
33191;BME280;19554;42.652;23.364;2023-02-28T04:14:35;95153.00;;;7.07;84.46
33191;BME280;19554;42.652;23.364;2023-02-28T04:17:00;95137.84;;;7.07;84.92
33191;BME280;19554;42.652;23.364;2023-02-28T04:19:25;95137.16;;;7.17;84.76
33191;BME280;19554;42.652;23.364;2023-02-28T04:21:52;95152.56;;;7.20;84.64
33191;BME280;19554;42.652;23.364;2023-02-28T04:24:20;95151.97;;;7.08;85.01
33191;BME280;19554;42.652;23.364;2023-02-28T04:26:47;95155.59;;;7.02;85.01
33191;BME280;19554;42.652;23.364;2023-02-28T04:29:19;95110.09;;;6.88;85.08
33191;BME280;19554;42.652;23.364;2023-02-28T04:31:44;95145.47;;;7.26;84.86
33191;BME280;19554;42.652;23.364;2023-02-28T04:34:10;95140.41;;;7.24;83.93
33191;BME280;19554;42.652;23.364;2023-02-28T04:36:35;95149.50;;;7.33;83.69
33191;BME280;19554;42.652;23.364;2023-02-28T04:39:00;95136.16;;;7.23;83.37
33191;BME280;19554;42.652;23.364;2023-02-28T04:41:26;95165.25;;;7.13;83.71
33191;BME280;19554;42.652;23.364;2023-02-28T04:43:51;95171.72;;;7.22;84.19
33191;BME280;19554;42.652;23.364;2023-02-28T04:46:17;95131.84;;;7.17;83.83
33191;BME280;19554;42.652;23.364;2023-02-28T04:48:43;95166.00;;;7.35;83.52
33191;BME280;19554;42.652;23.364;2023-02-28T04:51:11;95169.00;;;7.17;83.03
33191;BME280;19554;42.652;23.364;2023-02-28T04:53:38;95147.53;;;7.19;83.27
33191;BME280;19554;42.652;23.364;2023-02-28T04:56:05;95172.75;;;7.21;83.21
33191;BME280;19554;42.652;23.364;2023-02-28T04:58:31;95162.28;;;7.04;83.65
33191;BME280;19554;42.652;23.364;2023-02-28T05:01:14;95146.56;;;6.98;84.06
33191;BME280;19554;42.652;23.364;2023-02-28T05:03:42;95157.78;;;7.10;84.60
33191;BME280;19554;42.652;23.364;2023-02-28T05:06:08;95172.31;;;7.29;84.28
33191;BME280;19554;42.652;23.364;2023-02-28T05:08:34;95170.28;;;7.42;83.90
33191;BME280;19554;42.652;23.364;2023-02-28T05:11:00;95167.69;;;7.52;83.12
33191;BME280;19554;42.652;23.364;2023-02-28T05:13:26;95184.19;;;7.54;82.94
33191;BME280;19554;42.652;23.364;2023-02-28T05:15:51;95166.53;;;7.38;82.73
33191;BME280;19554;42.652;23.364;2023-02-28T05:18:17;95189.84;;;7.30;83.05
33191;BME280;19554;42.652;23.364;2023-02-28T05:20:42;95177.16;;;7.38;83.27
33191;BME280;19554;42.652;23.364;2023-02-28T05:23:11;95185.28;;;7.58;82.76
33191;BME280;19554;42.652;23.364;2023-02-28T05:25:36;95157.47;;;7.33;82.31
33191;BME280;19554;42.652;23.364;2023-02-28T05:28:02;95137.81;;;7.34;82.71
33191;BME280;19554;42.652;23.364;2023-02-28T05:30:28;95187.06;;;7.79;82.11
33191;BME280;19554;42.652;23.364;2023-02-28T05:32:53;95183.34;;;7.80;81.78
33191;BME280;19554;42.652;23.364;2023-02-28T05:35:18;95196.72;;;7.96;80.95
33191;BME280;19554;42.652;23.364;2023-02-28T05:37:44;95167.91;;;7.77;80.53
33191;BME280;19554;42.652;23.364;2023-02-28T05:40:10;95194.66;;;8.08;80.03
33191;BME280;19554;42.652;23.364;2023-02-28T05:42:36;95202.13;;;8.11;79.64
33191;BME280;19554;42.652;23.364;2023-02-28T05:45:02;95177.59;;;7.99;79.22
33191;BME280;19554;42.652;23.364;2023-02-28T05:47:28;95196.53;;;8.13;78.96
33191;BME280;19554;42.652;23.364;2023-02-28T05:49:53;95211.53;;;8.29;78.50
33191;BME280;19554;42.652;23.364;2023-02-28T05:52:18;95192.03;;;8.13;77.78
33191;BME280;19554;42.652;23.364;2023-02-28T05:54:44;95175.44;;;7.96;78.06
33191;BME280;19554;42.652;23.364;2023-02-28T05:57:11;95192.84;;;8.14;77.94
33191;BME280;19554;42.652;23.364;2023-02-28T05:59:36;95186.38;;;7.99;77.27
33191;BME280;19554;42.652;23.364;2023-02-28T06:02:14;95220.81;;;8.21;77.88
33191;BME280;19554;42.652;23.364;2023-02-28T06:04:40;95214.63;;;8.11;78.27
33191;BME280;19554;42.652;23.364;2023-02-28T06:07:07;95216.31;;;7.90;78.84
33191;BME280;19554;42.652;23.364;2023-02-28T06:09:33;95183.13;;;7.55;79.59
33191;BME280;19554;42.652;23.364;2023-02-28T06:12:00;95197.47;;;7.54;80.19
33191;BME280;19554;42.652;23.364;2023-02-28T06:14:25;95183.47;;;7.64;80.44
33191;BME280;19554;42.652;23.364;2023-02-28T06:16:51;95211.06;;;7.95;80.54
33191;BME280;19554;42.652;23.364;2023-02-28T06:19:16;95182.88;;;7.94;80.20
33191;BME280;19554;42.652;23.364;2023-02-28T06:21:42;95216.84;;;8.24;79.83
33191;BME280;19554;42.652;23.364;2023-02-28T06:24:08;95162.19;;;8.01;79.34
33191;BME280;19554;42.652;23.364;2023-02-28T06:26:33;95180.75;;;7.96;79.50
33191;BME280;19554;42.652;23.364;2023-02-28T06:28:59;95212.25;;;8.14;80.07
33191;BME280;19554;42.652;23.364;2023-02-28T06:34:47;95215.44;;;8.11;80.07
33191;BME280;19554;42.652;23.364;2023-02-28T06:37:12;95140.69;;;7.60;80.39
33191;BME280;19554;42.652;23.364;2023-02-28T06:39:38;95119.31;;;7.45;80.85
33191;BME280;19554;42.652;23.364;2023-02-28T06:42:04;95226.56;;;8.08;80.59
33191;BME280;19554;42.652;23.364;2023-02-28T06:44:29;95228.09;;;7.99;80.73
33191;BME280;19554;42.652;23.364;2023-02-28T06:47:00;95224.31;;;7.90;81.65
33191;BME280;19554;42.652;23.364;2023-02-28T06:49:27;95212.56;;;7.80;81.74
33191;BME280;19554;42.652;23.364;2023-02-28T06:51:53;95229.69;;;8.00;81.61
33191;BME280;19554;42.652;23.364;2023-02-28T06:54:19;95235.72;;;7.85;81.87
33191;BME280;19554;42.652;23.364;2023-02-28T06:56:44;95238.50;;;7.68;82.40
33191;BME280;19554;42.652;23.364;2023-02-28T06:59:09;95220.00;;;7.46;82.96
33191;BME280;19554;42.652;23.364;2023-02-28T07:01:35;95195.22;;;7.41;83.55
33191;BME280;19554;42.652;23.364;2023-02-28T07:04:01;95238.06;;;7.81;83.17
33191;BME280;19554;42.652;23.364;2023-02-28T07:06:27;95238.41;;;7.90;82.96
33191;BME280;19554;42.652;23.364;2023-02-28T07:08:53;95234.34;;;7.82;82.19
33191;BME280;19554;42.652;23.364;2023-02-28T07:11:23;95226.97;;;7.90;82.15
33191;BME280;19554;42.652;23.364;2023-02-28T07:13:51;95228.81;;;7.89;82.10
33191;BME280;19554;42.652;23.364;2023-02-28T07:16:16;95226.44;;;7.88;81.72
33191;BME280;19554;42.652;23.364;2023-02-28T07:18:41;95235.19;;;7.88;81.87
33191;BME280;19554;42.652;23.364;2023-02-28T07:21:09;95231.66;;;7.77;82.39
33191;BME280;19554;42.652;23.364;2023-02-28T07:23:35;95238.56;;;7.78;82.44
33191;BME280;19554;42.652;23.364;2023-02-28T07:26:01;95143.06;;;7.24;82.57
33191;BME280;19554;42.652;23.364;2023-02-28T07:28:27;95241.91;;;7.64;82.99
33191;BME280;19554;42.652;23.364;2023-02-28T07:30:52;95250.47;;;7.71;83.23
33191;BME280;19554;42.652;23.364;2023-02-28T07:33:17;95233.75;;;7.75;83.76
33191;BME280;19554;42.652;23.364;2023-02-28T07:35:43;95228.75;;;7.79;83.48
33191;BME280;19554;42.652;23.364;2023-02-28T07:38:09;95238.66;;;7.89;83.59
33191;BME280;19554;42.652;23.364;2023-02-28T07:40:35;95236.63;;;8.01;83.87
33191;BME280;19554;42.652;23.364;2023-02-28T07:43:01;95229.59;;;8.22;83.68
33191;BME280;19554;42.652;23.364;2023-02-28T07:45:27;95228.94;;;8.47;83.38
33191;BME280;19554;42.652;23.364;2023-02-28T07:47:59;95231.69;;;8.62;81.91
33191;BME280;19554;42.652;23.364;2023-02-28T07:50:25;95233.28;;;8.63;81.72
33191;BME280;19554;42.652;23.364;2023-02-28T07:52:50;95215.13;;;8.50;82.31
33191;BME280;19554;42.652;23.364;2023-02-28T07:55:16;95231.75;;;8.77;82.38
33191;BME280;19554;42.652;23.364;2023-02-28T07:57:42;95228.31;;;8.87;82.26
33191;BME280;19554;42.652;23.364;2023-02-28T08:00:09;95222.72;;;8.84;82.23
33191;BME280;19554;42.652;23.364;2023-02-28T08:02:35;95163.78;;;8.54;81.65
33191;BME280;19554;42.652;23.364;2023-02-28T08:05:01;95205.19;;;8.93;81.40
33191;BME280;19554;42.652;23.364;2023-02-28T08:07:27;95179.06;;;8.80;81.22
33191;BME280;19554;42.652;23.364;2023-02-28T08:09:52;95228.16;;;9.24;80.85
33191;BME280;19554;42.652;23.364;2023-02-28T08:12:18;95218.00;;;9.11;81.38
33191;BME280;19554;42.652;23.364;2023-02-28T08:14:43;95221.19;;;9.03;82.12
33191;BME280;19554;42.652;23.364;2023-02-28T08:17:09;95217.44;;;8.94;83.07
33191;BME280;19554;42.652;23.364;2023-02-28T08:19:34;95218.53;;;9.08;83.55
33191;BME280;19554;42.652;23.364;2023-02-28T08:22:00;95157.19;;;8.62;84.26
33191;BME280;19554;42.652;23.364;2023-02-28T08:24:25;95218.78;;;8.96;85.31
33191;BME280;19554;42.652;23.364;2023-02-28T08:26:51;95229.19;;;9.08;85.54
33191;BME280;19554;42.652;23.364;2023-02-28T08:29:16;95235.03;;;9.05;85.51
33191;BME280;19554;42.652;23.364;2023-02-28T08:31:42;95225.72;;;9.02;85.47
33191;BME280;19554;42.652;23.364;2023-02-28T08:34:09;95176.88;;;8.71;85.62
33191;BME280;19554;42.652;23.364;2023-02-28T08:36:35;95241.44;;;9.19;85.52
33191;BME280;19554;42.652;23.364;2023-02-28T08:39:01;95241.47;;;9.30;84.53
33191;BME280;19554;42.652;23.364;2023-02-28T08:41:27;95231.38;;;9.27;83.39
33191;BME280;19554;42.652;23.364;2023-02-28T08:43:52;95231.63;;;9.30;83.60
33191;BME280;19554;42.652;23.364;2023-02-28T08:46:19;95226.88;;;9.47;83.83
33191;BME280;19554;42.652;23.364;2023-02-28T08:48:44;95221.28;;;9.54;83.24
33191;BME280;19554;42.652;23.364;2023-02-28T08:51:13;95222.59;;;9.41;83.54
33191;BME280;19554;42.652;23.364;2023-02-28T08:53:40;95226.63;;;9.54;83.62
33191;BME280;19554;42.652;23.364;2023-02-28T08:56:08;95240.44;;;9.41;82.65
33191;BME280;19554;42.652;23.364;2023-02-28T08:58:34;95234.06;;;9.42;83.19
33191;BME280;19554;42.652;23.364;2023-02-28T09:01:00;95244.44;;;9.38;83.51
33191;BME280;19554;42.652;23.364;2023-02-28T09:03:25;95162.56;;;8.88;83.22
33191;BME280;19554;42.652;23.364;2023-02-28T09:06:00;95235.88;;;9.36;83.32
33191;BME280;19554;42.652;23.364;2023-02-28T09:08:29;95238.84;;;9.45;83.48
33191;BME280;19554;42.652;23.364;2023-02-28T09:10:55;95204.16;;;9.14;83.20
33191;BME280;19554;42.652;23.364;2023-02-28T09:13:23;95230.31;;;9.43;83.09
33191;BME280;19554;42.652;23.364;2023-02-28T09:15:49;95156.19;;;8.99;83.47
33191;BME280;19554;42.652;23.364;2023-02-28T09:18:14;95226.59;;;9.49;83.30
33191;BME280;19554;42.652;23.364;2023-02-28T09:20:41;95227.13;;;9.51;83.72
33191;BME280;19554;42.652;23.364;2023-02-28T09:23:08;95231.41;;;9.57;83.57
33191;BME280;19554;42.652;23.364;2023-02-28T09:25:33;95204.75;;;9.62;83.21
33191;BME280;19554;42.652;23.364;2023-02-28T09:27:59;95202.09;;;9.62;82.14
33191;BME280;19554;42.652;23.364;2023-02-28T09:30:25;95233.53;;;9.91;81.35
33191;BME280;19554;42.652;23.364;2023-02-28T09:32:50;95240.47;;;9.92;80.82
33191;BME280;19554;42.652;23.364;2023-02-28T09:35:26;95230.34;;;9.73;81.89
33191;BME280;19554;42.652;23.364;2023-02-28T09:37:52;95207.41;;;9.72;81.76
33191;BME280;19554;42.652;23.364;2023-02-28T09:40:19;95181.84;;;9.51;81.73
33191;BME280;19554;42.652;23.364;2023-02-28T09:42:48;95225.53;;;9.70;80.99
33191;BME280;19554;42.652;23.364;2023-02-28T09:45:33;95222.63;;;9.82;81.32
33191;BME280;19554;42.652;23.364;2023-02-28T09:48:09;95217.28;;;9.72;80.95
33191;BME280;19554;42.652;23.364;2023-02-28T09:50:49;95206.34;;;9.58;80.86
33191;BME280;19554;42.652;23.364;2023-02-28T09:53:22;95215.41;;;9.78;81.12
33191;BME280;19554;42.652;23.364;2023-02-28T09:55:55;95209.53;;;9.70;80.56
33191;BME280;19554;42.652;23.364;2023-02-28T10:03:43;95212.22;;;9.76;81.25
33191;BME280;19554;42.652;23.364;2023-02-28T10:06:17;95210.06;;;9.93;81.02
33191;BME280;19554;42.652;23.364;2023-02-28T10:09:01;95212.75;;;9.83;80.48
33191;BME280;19554;42.652;23.364;2023-02-28T10:11:29;95199.69;;;9.81;79.85
33191;BME280;19554;42.652;23.364;2023-02-28T10:14:18;95208.47;;;9.87;79.94
33191;BME280;19554;42.652;23.364;2023-02-28T10:16:48;95218.34;;;9.86;79.57
33191;BME280;19554;42.652;23.364;2023-02-28T10:19:32;95207.94;;;10.00;79.67
33191;BME280;19554;42.652;23.364;2023-02-28T10:22:25;95210.03;;;10.08;78.41
33191;BME280;19554;42.652;23.364;2023-02-28T10:24:55;95200.97;;;10.19;77.27
33191;BME280;19554;42.652;23.364;2023-02-28T10:27:31;95175.66;;;9.96;77.37
33191;BME280;19554;42.652;23.364;2023-02-28T10:30:01;95192.44;;;10.17;77.57
33191;BME280;19554;42.652;23.364;2023-02-28T10:32:33;95191.13;;;10.10;77.29
33191;BME280;19554;42.652;23.364;2023-02-28T10:35:21;95185.53;;;10.06;77.80
33191;BME280;19554;42.652;23.364;2023-02-28T10:37:54;95179.69;;;9.99;77.40
33191;BME280;19554;42.652;23.364;2023-02-28T10:46:12;95177.44;;;10.42;76.24
33191;BME280;19554;42.652;23.364;2023-02-28T10:49:03;95171.06;;;10.38;76.79
33191;BME280;19554;42.652;23.364;2023-02-28T10:51:38;95166.28;;;10.14;77.42
33191;BME280;19554;42.652;23.364;2023-02-28T10:54:04;95164.13;;;10.21;77.16
33191;BME280;19554;42.652;23.364;2023-02-28T10:56:31;95156.41;;;10.30;76.72
33191;BME280;19554;42.652;23.364;2023-02-28T10:59:29;95150.53;;;10.28;77.16
33191;BME280;19554;42.652;23.364;2023-02-28T11:01:55;95159.34;;;10.34;76.59
33191;BME280;19554;42.652;23.364;2023-02-28T11:09:39;95141.09;;;10.56;75.39
33191;BME280;19554;42.652;23.364;2023-02-28T11:14:51;95125.56;;;10.74;74.42
33191;BME280;19554;42.652;23.364;2023-02-28T11:17:23;95135.41;;;10.73;73.86
33191;BME280;19554;42.652;23.364;2023-02-28T11:19:52;95119.81;;;10.46;74.97
33191;BME280;19554;42.652;23.364;2023-02-28T11:22:21;95137.94;;;10.49;76.14
33191;BME280;19554;42.652;23.364;2023-02-28T11:24:52;95128.63;;;10.41;75.43
33191;BME280;19554;42.652;23.364;2023-02-28T11:29:58;95144.25;;;10.68;75.04
33191;BME280;19554;42.652;23.364;2023-02-28T11:32:25;95098.97;;;10.53;75.08
33191;BME280;19554;42.652;23.364;2023-02-28T11:37:34;95085.69;;;10.38;74.46
33191;BME280;19554;42.652;23.364;2023-02-28T11:39:59;95136.28;;;10.63;74.39
33191;BME280;19554;42.652;23.364;2023-02-28T11:47:43;95124.00;;;10.62;74.63
33191;BME280;19554;42.652;23.364;2023-02-28T11:56:37;95114.63;;;11.14;73.50
33191;BME280;19554;42.652;23.364;2023-02-28T11:59:29;95112.53;;;11.06;72.45
33191;BME280;19554;42.652;23.364;2023-02-28T12:07:40;95114.78;;;10.89;73.33
33191;BME280;19554;42.652;23.364;2023-02-28T12:10:22;95115.31;;;10.91;73.06
33191;BME280;19554;42.652;23.364;2023-02-28T12:13:16;95105.09;;;10.98;72.60
33191;BME280;19554;42.652;23.364;2023-02-28T12:19:22;95108.41;;;10.80;73.74
33191;BME280;19554;42.652;23.364;2023-02-28T12:22:19;95118.59;;;10.73;73.43
33191;BME280;19554;42.652;23.364;2023-02-28T12:24:59;95093.44;;;10.39;74.36
33191;BME280;19554;42.652;23.364;2023-02-28T12:27:28;95106.38;;;10.61;74.23
33191;BME280;19554;42.652;23.364;2023-02-28T12:32:33;95111.13;;;10.75;73.75
33191;BME280;19554;42.652;23.364;2023-02-28T12:35:13;95108.41;;;10.80;73.05
33191;BME280;19554;42.652;23.364;2023-02-28T12:37:45;95063.44;;;10.53;73.00
33191;BME280;19554;42.652;23.364;2023-02-28T12:40:19;95058.41;;;10.51;73.11
33191;BME280;19554;42.652;23.364;2023-02-28T12:42:49;95112.72;;;10.76;73.49
33191;BME280;19554;42.652;23.364;2023-02-28T12:45:22;95103.88;;;10.80;72.24
33191;BME280;19554;42.652;23.364;2023-02-28T12:47:57;95102.03;;;10.76;72.08
33191;BME280;19554;42.652;23.364;2023-02-28T12:50:26;95109.47;;;10.84;72.27
33191;BME280;19554;42.652;23.364;2023-02-28T13:09:01;95109.09;;;10.51;73.58
33191;BME280;19554;42.652;23.364;2023-02-28T13:14:03;95107.06;;;10.28;73.54
33191;BME280;19554;42.652;23.364;2023-02-28T13:19:17;95087.84;;;10.36;73.45
33191;BME280;19554;42.652;23.364;2023-02-28T13:21:45;95092.50;;;10.64;73.12
33191;BME280;19554;42.652;23.364;2023-02-28T13:24:11;95079.50;;;10.48;72.71
33191;BME280;19554;42.652;23.364;2023-02-28T13:29:31;95088.78;;;10.60;70.75
33191;BME280;19554;42.652;23.364;2023-02-28T13:39:54;95061.28;;;10.60;69.79
33191;BME280;19554;42.652;23.364;2023-02-28T13:42:34;95098.38;;;10.56;70.83
33191;BME280;19554;42.652;23.364;2023-02-28T13:47:42;95085.81;;;10.67;71.43
33191;BME280;19554;42.652;23.364;2023-02-28T13:58:01;95058.88;;;10.58;71.01
33191;BME280;19554;42.652;23.364;2023-02-28T14:05:42;95056.25;;;10.53;70.78
33191;BME280;19554;42.652;23.364;2023-02-28T14:08:18;95072.75;;;10.60;71.05
33191;BME280;19554;42.652;23.364;2023-02-28T14:10:48;95081.81;;;10.59;71.44
33191;BME280;19554;42.652;23.364;2023-02-28T14:16:05;95084.59;;;10.44;72.26
33191;BME280;19554;42.652;23.364;2023-02-28T14:18:36;95066.53;;;10.26;72.64
33191;BME280;19554;42.652;23.364;2023-02-28T14:21:22;95073.91;;;10.44;72.99
33191;BME280;19554;42.652;23.364;2023-02-28T14:37:38;95082.06;;;9.98;74.27
33191;BME280;19554;42.652;23.364;2023-02-28T14:40:12;95040.78;;;9.80;74.45
33191;BME280;19554;42.652;23.364;2023-02-28T14:42:43;95077.53;;;9.99;74.94
33191;BME280;19554;42.652;23.364;2023-02-28T14:45:20;95089.56;;;9.86;75.22
33191;BME280;19554;42.652;23.364;2023-02-28T14:47:47;95061.66;;;9.58;75.59
33191;BME280;19554;42.652;23.364;2023-02-28T14:50:20;95093.88;;;9.66;76.26
33191;BME280;19554;42.652;23.364;2023-02-28T14:52:46;95089.63;;;9.65;77.01
33191;BME280;19554;42.652;23.364;2023-02-28T14:55:18;95037.44;;;9.34;77.16
33191;BME280;19554;42.652;23.364;2023-02-28T15:00:27;95097.63;;;9.65;76.90
33191;BME280;19554;42.652;23.364;2023-02-28T15:02:55;95077.91;;;9.51;76.91
33191;BME280;19554;42.652;23.364;2023-02-28T15:05:29;95077.91;;;9.46;76.92
33191;BME280;19554;42.652;23.364;2023-02-28T15:08:15;95084.28;;;9.65;76.85
33191;BME280;19554;42.652;23.364;2023-02-28T15:10:53;95056.34;;;9.22;77.50
33191;BME280;19554;42.652;23.364;2023-02-28T15:13:19;95075.50;;;9.49;77.28
33191;BME280;19554;42.652;23.364;2023-02-28T15:15:52;95065.09;;;9.53;77.12
33191;BME280;19554;42.652;23.364;2023-02-28T15:20:48;95072.56;;;9.61;75.56
33191;BME280;19554;42.652;23.364;2023-02-28T15:23:15;95093.09;;;9.71;75.46
33191;BME280;19554;42.652;23.364;2023-02-28T15:25:41;95100.28;;;9.65;75.80
33191;BME280;19554;42.652;23.364;2023-02-28T15:28:14;95072.03;;;9.64;75.78
33191;BME280;19554;42.652;23.364;2023-02-28T15:30:51;95100.81;;;9.62;76.01
33191;BME280;19554;42.652;23.364;2023-02-28T15:33:18;95103.44;;;9.67;76.22
33191;BME280;19554;42.652;23.364;2023-02-28T15:35:44;95090.69;;;9.59;76.08
33191;BME280;19554;42.652;23.364;2023-02-28T15:40:43;95095.78;;;9.40;77.43
33191;BME280;19554;42.652;23.364;2023-02-28T15:43:17;95090.44;;;9.35;77.71
33191;BME280;19554;42.652;23.364;2023-02-28T15:45:51;95012.44;;;8.68;77.99